CAMANCHE RESERVOIR (CMN)

Elevation: 236' · MOKELUMNE R basin · Operator: East Bay Municipal Utility District

Provisional data, subject to change.
Query executed Wednesday at 8:03:05   clock

Select a sensor type for a plot of data.
Note: Reservoir Flows are daily averages.

Earlier

Date RES ELE    STORAGE    RES CHG    TOC STO    OUTFLOW    INFLOW   
 FEET   AF   AF   AF   CFS   CFS  
07/01/2014 189.00 142470 326 391870 275 508
07/02/2014 189.10 142890 414 392700 276 511
07/03/2014 188.96 142300 -571 392800 276 14
07/04/2014 188.82 141720 -574 394340 275 11
07/05/2014 188.67 141090 -650 394010 275 11
07/06/2014 188.53 140510 -563 394340 275 11
07/07/2014 188.63 140930 402 396060 275 509
07/08/2014 188.70 141220 312 -1222200 276 528
07/09/2014 188.80 141640 429 399530 276 528
07/10/2014 188.65 141010 -585 400880 275 11
07/11/2014 188.51 140430 -544 402470 275 11
07/12/2014 188.36 139800 -645 404010 275 11
07/13/2014 188.23 139260 -569 405540 275 11
07/14/2014 188.35 139760 505 407900 252 522
07/15/2014 188.45 140180 416 409910 240 530
07/16/2014 188.56 140630 423 411920 240 527
07/17/2014 188.43 140090 -530 416430 240 11
07/18/2014 188.29 139510 -543 417100 240 11
07/19/2014 188.18 139060 -462 414060 240 11
07/20/2014 188.06 138560 -538 410500 240 11
07/21/2014 188.15 138930 388 406930 240 521
07/22/2014 188.26 139390 470 403370 240 496
07/23/2014 188.38 139890 517 399550 239 482
07/24/2014 188.25 139350 -485 395060 239 11
07/25/2014 188.15 138930 -428 390440 239 11
07/26/2014 188.04 138480 -548 385590 240 11
07/27/2014 187.90 137900 -420 380700 241 11
07/28/2014 188.00 138310 413 365300 242 476
07/29/2014 188.13 138836 526 -- 248 494
07/30/2014 -- -- -- -- -- --

Later | Latest

Warning! This data is preliminary and subject to revision.

Download Data Now Download Data Now | Show CMN Map | Plot CMN Data | 1 Month CMN Data | Real-Time CMN Data | CMN Info